LTBI/ESK METAR and TAF weather

Enter ICAO airport designator
Station Type Date Time Source
LTBI METAR 2020/06/03 20:50 UTC NOAA

LTBI 032050Z 00000KT CAVOK 09/08 Q1013 NOSIG RMK RWY08 05002KT


Station Type Date Time Source
LTBI Decoded METAR 2020/06/03 20:50 UTC NOAA

Eskisehir, Turkey (LTBI) 39-47N 030-34E 785M
Jun 03, 2020 - 04:50 PM EDT / 2020.06.03 2050 UTC
Wind: Calm:0
Visibility: greater than 7 mile(s):0
Temperature: 48 F (9 C)
Dew Point: 46 F (8 C)
Relative Humidity: 93%
Pressure (altimeter): 29.91 in. Hg (1013 hPa)
ob: LTBI 032050Z 00000KT CAVOK 09/08 Q1013 NOSIG RMK RWY08 05002KT
cycle: 21

Station Type Date Time Source
LTBI TAF 2012/05/11 09:09 UTC NOAA

TAF LTBI 110740Z 1109/1121 VRB02KT 6000 -SHRA BKN030 BKN090
TEMPO 1112/1116 33015KT 4000 -TSRA FEW025CB BKN030

Example: see airport list